aviador You're here:

MMSL Decoded Metar

in
Report Time2017-07-26 21:47:00
UTC Time2017-07-26 22:34:52
Flight Rules vfr VFR
Wind140° at 04 kt
W.Decomp.*RWY 11: 3.5 kt HW 2.0 kt RCW
W.Rank140° ranks 18
Current wind is below 140° avg. (7.6)
Visibility9999 m
Phenomena:N/A
Clouds:Few 120 Hf
Expected CloudBase > 3,600 ft AGL from Temp-Dew spread
CeilingNone
Temp31°C
Dew Point22°C (59% RH)
Heat Index34.6°C
QNH1014 hPa
Raw Report
METAR MMSL 262147Z 14004KT 9SM FEW120 31/22 A2995
RMK 8/030 NDT CU N / CI=

Extra information for MMSL:More info

Social comments